Time;durP1;ratioP1;P1;durP2;ratioP2;P2;SDS_P1;SDS_P2;PMS_P1;PMS_P2;Temp;Humidity;BMP_temperature;BMP_pressure;BME280_temperature;BME280_humidity;BME280_pressure;Samples;Min_cycle;Max_cycle;Signal;HPM_P1;HPM_P2
2021/05/23 00:01:36;;;;;;;1.10;1.00;;;11.40;99.90;;;;;;5032165;28;20946;-88
2021/05/23 00:04:03;;;;;;;2.03;1.10;;;11.40;99.90;;;;;;5033466;27;20636;-89
2021/05/23 00:06:29;;;;;;;2.30;1.10;;;11.30;99.90;;;;;;5029607;27;21083;-88
2021/05/23 00:08:56;;;;;;;2.00;1.30;;;11.30;99.90;;;;;;5032477;27;20965;-88
2021/05/23 00:11:22;;;;;;;2.43;1.07;;;11.40;99.90;;;;;;5024187;27;20669;-88
2021/05/23 00:13:50;;;;;;;2.03;1.30;;;11.40;99.90;;;;;;5047384;27;21043;-88
2021/05/23 00:16:18;;;;;;;3.40;1.33;;;11.50;99.90;;;;;;5024821;27;20638;-86
2021/05/23 00:18:46;;;;;;;2.40;1.00;;;11.50;99.90;;;;;;5029315;28;20680;-87
2021/05/23 00:21:15;;;;;;;3.80;1.53;;;11.50;99.90;;;;;;5021022;28;20679;-86
2021/05/23 00:23:42;;;;;;;2.60;2.40;;;11.40;99.90;;;;;;5041145;28;20611;-88
2021/05/23 00:26:11;;;;;;;1.70;1.03;;;11.40;99.90;;;;;;5027226;28;20630;-89
2021/05/23 00:28:38;;;;;;;4.07;1.17;;;11.40;99.90;;;;;;5044153;27;20627;-89
2021/05/23 00:31:05;;;;;;;1.80;1.30;;;11.40;99.90;;;;;;5024515;28;21145;-89
2021/05/23 00:33:34;;;;;;;2.70;1.23;;;11.40;99.90;;;;;;5044154;28;20639;-88
2021/05/23 00:36:01;;;;;;;2.33;1.40;;;11.40;99.90;;;;;;5027679;28;20643;-88
2021/05/23 00:38:27;;;;;;;3.33;1.20;;;11.40;99.90;;;;;;5022219;28;21323;-89
2021/05/23 00:40:53;;;;;;;2.63;1.17;;;11.30;99.90;;;;;;5034216;28;21050;-89
2021/05/23 00:43:21;;;;;;;3.80;1.63;;;11.40;99.90;;;;;;5016776;28;20639;-89
2021/05/23 00:45:49;;;;;;;2.80;1.07;;;11.30;99.90;;;;;;5014563;28;20654;-88
2021/05/23 00:48:16;;;;;;;2.80;1.70;;;11.20;99.90;;;;;;5031729;28;20646;-88
2021/05/23 00:50:43;;;;;;;2.27;1.10;;;11.30;99.90;;;;;;5032361;28;20673;-88
2021/05/23 00:53:10;;;;;;;4.17;1.50;;;11.30;99.90;;;;;;5035172;28;20639;-88
2021/05/23 00:55:37;;;;;;;2.17;1.50;;;11.20;99.90;;;;;;5026218;28;20613;-88
2021/05/23 00:58:04;;;;;;;2.63;1.00;;;11.10;99.90;;;;;;5022532;28;20714;-89
2021/05/23 01:01:03;;;;;;;1.60;0.83;;;11.20;99.90;;;;;;5023566;28;21242;-89
2021/05/23 01:03:57;;;;;;;1.60;1.07;;;11.10;99.90;;;;;;5028033;27;20614;-89
2021/05/23 01:06:24;;;;;;;2.20;1.13;;;11.10;99.90;;;;;;5032916;27;20630;-89
2021/05/23 01:08:50;;;;;;;2.20;1.00;;;11.10;99.90;;;;;;5031104;27;20627;-89
2021/05/23 01:11:50;;;;;;;1.67;1.10;;;11.10;99.90;;;;;;5026781;27;20663;-89
2021/05/23 01:14:21;;;;;;;4.97;0.97;;;11.10;99.90;;;;;;5030343;27;20676;-89
2021/05/23 01:16:50;;;;;;;4.63;1.03;;;11.10;99.90;;;;;;5035772;27;21139;-88
2021/05/23 01:19:22;;;;;;;2.43;1.00;;;11.20;99.90;;;;;;5028615;27;21285;-88
2021/05/23 01:21:53;;;;;;;1.50;1.10;;;11.20;99.90;;;;;;5034496;27;20630;-88
2021/05/23 01:24:26;;;;;;;2.70;1.40;;;11.30;99.90;;;;;;5034075;27;20765;-90
2021/05/23 01:26:54;;;;;;;1.00;0.70;;;11.20;99.90;;;;;;5032409;27;20661;-90
2021/05/23 01:29:21;;;;;;;1.53;0.83;;;11.30;99.90;;;;;;5027304;27;20639;-89
2021/05/23 01:31:49;;;;;;;1.33;0.70;;;11.20;99.90;;;;;;5054484;27;21072;-88
2021/05/23 01:34:17;;;;;;;1.00;0.90;;;11.20;99.90;;;;;;5024886;27;21192;-89
2021/05/23 01:36:47;;;;;;;1.37;0.93;;;11.20;99.90;;;;;;5045830;27;20889;-88
2021/05/23 01:39:14;;;;;;;1.30;0.93;;;11.20;99.90;;;;;;5022951;27;21262;-88
2021/05/23 01:41:42;;;;;;;3.43;0.93;;;11.20;99.90;;;;;;5039697;27;20654;-88
2021/05/23 01:44:10;;;;;;;1.67;1.10;;;11.20;99.90;;;;;;5025155;27;20651;-88
2021/05/23 01:46:37;;;;;;;2.40;1.00;;;11.20;99.90;;;;;;5031446;27;21142;-89
2021/05/23 01:49:05;;;;;;;1.93;1.27;;;11.20;99.90;;;;;;5023861;27;20610;-89
2021/05/23 01:51:31;;;;;;;1.67;1.00;;;11.30;99.90;;;;;;5022907;28;20731;-88
2021/05/23 01:53:58;;;;;;;1.30;0.60;;;11.20;99.90;;;;;;5027960;27;20630;-88
2021/05/23 01:56:24;;;;;;;4.53;1.10;;;11.20;99.90;;;;;;5037394;27;20969;-90
2021/05/23 01:58:51;;;;;;;1.60;1.17;;;11.20;99.90;;;;;;5037596;27;21480;-91
2021/05/23 02:01:20;;;;;;;1.93;1.20;;;11.20;99.90;;;;;;5037854;27;21254;-90
2021/05/23 02:03:47;;;;;;;0.90;0.77;;;11.20;99.90;;;;;;5022733;27;20644;-90
2021/05/23 02:06:14;;;;;;;1.23;0.93;;;11.30;99.90;;;;;;5033698;27;20699;-90
2021/05/23 02:08:41;;;;;;;2.17;1.03;;;11.30;99.90;;;;;;5031876;27;20637;-91
2021/05/23 02:11:09;;;;;;;2.10;0.83;;;11.20;99.90;;;;;;5048737;27;20649;-91
2021/05/23 02:13:36;;;;;;;2.07;1.30;;;11.20;99.90;;;;;;5041697;27;20599;-90
2021/05/23 02:16:04;;;;;;;1.60;0.77;;;11.20;99.90;;;;;;5037085;27;20639;-90
2021/05/23 02:18:33;;;;;;;0.93;0.63;;;11.10;99.90;;;;;;5037934;27;21008;-90
2021/05/23 02:21:00;;;;;;;0.93;0.73;;;11.20;99.90;;;;;;5029718;27;20825;-89
2021/05/23 02:23:26;;;;;;;1.73;0.97;;;11.20;99.90;;;;;;5029166;27;20638;-90
2021/05/23 02:25:53;;;;;;;1.90;0.93;;;11.10;99.90;;;;;;5036051;27;20640;-89
2021/05/23 02:28:23;;;;;;;1.60;0.90;;;11.10;99.90;;;;;;5030292;27;20972;-90
2021/05/23 02:30:52;;;;;;;1.33;0.80;;;11.20;99.90;;;;;;5048956;27;20663;-91
2021/05/23 02:33:19;;;;;;;1.67;0.67;;;11.20;99.90;;;;;;5043695;27;21191;-90
2021/05/23 02:35:48;;;;;;;2.67;1.00;;;11.20;99.90;;;;;;5063415;27;20639;-90
2021/05/23 02:38:16;;;;;;;2.50;1.00;;;11.20;99.90;;;;;;5041266;27;20733;-90
2021/05/23 02:40:45;;;;;;;2.50;0.80;;;11.20;99.90;;;;;;5037308;27;21102;-90
2021/05/23 02:43:12;;;;;;;2.80;1.20;;;11.30;99.90;;;;;;5035413;27;20638;-90
2021/05/23 02:45:39;;;;;;;1.33;0.80;;;11.30;99.90;;;;;;5027262;27;20644;-89
2021/05/23 02:48:07;;;;;;;1.80;0.70;;;10.90;99.90;;;;;;5026959;27;21195;-89
2021/05/23 02:50:38;;;;;;;1.33;0.60;;;10.60;99.90;;;;;;5033974;27;20657;-89
2021/05/23 02:53:06;;;;;;;2.47;0.93;;;10.50;99.90;;;;;;5031032;27;20646;-89
2021/05/23 02:55:34;;;;;;;1.73;0.70;;;10.20;99.90;;;;;;5025663;27;21220;-90
2021/05/23 02:58:00;;;;;;;0.80;0.53;;;10.10;99.90;;;;;;5042636;27;20668;-91
2021/05/23 03:00:27;;;;;;;2.20;0.60;;;9.90;99.90;;;;;;5031855;27;20988;-89
2021/05/23 03:02:54;;;;;;;0.80;0.53;;;9.90;99.90;;;;;;5032246;27;20686;-90
2021/05/23 03:05:23;;;;;;;1.57;0.90;;;9.80;99.90;;;;;;5017832;27;21188;-88
2021/05/23 03:07:51;;;;;;;0.60;0.60;;;9.70;99.90;;;;;;5034730;27;20644;-90
2021/05/23 03:10:21;;;;;;;0.67;0.67;;;9.80;99.90;;;;;;5039660;27;20673;-87
2021/05/23 03:12:48;;;;;;;0.90;0.53;;;9.70;99.90;;;;;;5051752;27;20635;-87
2021/05/23 03:15:17;;;;;;;1.70;0.60;;;9.70;99.90;;;;;;5030335;27;20634;-88
2021/05/23 03:17:44;;;;;;;0.70;0.50;;;9.70;99.90;;;;;;5033619;27;20722;-87
2021/05/23 03:20:12;;;;;;;0.73;0.60;;;9.70;99.90;;;;;;5056332;27;22456;-88
2021/05/23 03:22:39;;;;;;;0.50;0.50;;;9.80;99.90;;;;;;5042536;27;20650;-89
2021/05/23 03:25:08;;;;;;;1.53;0.50;;;9.80;99.90;;;;;;5045804;27;21043;-84
2021/05/23 03:27:35;;;;;;;0.83;0.63;;;9.80;99.90;;;;;;5023354;27;20647;-86
2021/05/23 03:30:03;;;;;;;1.40;0.53;;;9.80;99.90;;;;;;5032268;27;20666;-84
2021/05/23 03:32:29;;;;;;;0.83;0.60;;;9.80;99.90;;;;;;5025025;27;20654;-84
2021/05/23 03:34:55;;;;;;;1.80;0.60;;;9.60;99.90;;;;;;5036963;27;20702;-84
2021/05/23 03:37:23;;;;;;;0.80;0.60;;;9.60;99.90;;;;;;5040888;27;21066;-86
2021/05/23 03:39:49;;;;;;;2.27;0.60;;;9.60;99.90;;;;;;5034300;27;20738;-87
2021/05/23 03:42:15;;;;;;;0.93;0.50;;;9.60;99.90;;;;;;5030438;27;20639;-84
2021/05/23 03:44:43;;;;;;;0.83;0.70;;;9.50;99.90;;;;;;5036919;27;20705;-85
2021/05/23 03:47:10;;;;;;;0.50;0.40;;;9.60;99.90;;;;;;5029320;27;20630;-85
2021/05/23 03:49:38;;;;;;;0.93;0.40;;;9.40;99.90;;;;;;5035702;27;20654;-86
2021/05/23 03:52:05;;;;;;;1.00;0.80;;;9.40;99.90;;;;;;5021842;27;20635;-86
2021/05/23 03:54:32;;;;;;;1.03;0.67;;;9.40;99.90;;;;;;5023056;27;20627;-86
2021/05/23 03:56:58;;;;;;;0.93;0.50;;;9.50;99.90;;;;;;5027917;27;20985;-85
2021/05/23 03:59:25;;;;;;;1.33;0.60;;;9.50;99.90;;;;;;5027449;27;20659;-86
2021/05/23 04:01:52;;;;;;;0.50;0.50;;;9.50;99.90;;;;;;5022180;27;20630;-85
2021/05/23 04:04:20;;;;;;;0.93;0.70;;;9.50;99.90;;;;;;5028283;27;20612;-85
2021/05/23 04:06:47;;;;;;;1.20;0.50;;;9.40;99.90;;;;;;5027702;27;20639;-84
2021/05/23 04:09:14;;;;;;;0.80;0.50;;;9.40;99.90;;;;;;5026272;28;20704;-84
2021/05/23 04:11:44;;;;;;;1.33;0.87;;;9.30;99.90;;;;;;5024628;27;20615;-85
2021/05/23 04:14:11;;;;;;;2.00;0.70;;;9.30;99.90;;;;;;5028514;27;20685;-86
2021/05/23 04:16:37;;;;;;;0.70;0.70;;;9.30;99.90;;;;;;5029409;27;20618;-86
2021/05/23 04:19:06;;;;;;;3.17;1.23;;;9.30;99.90;;;;;;5037867;28;20677;-86
2021/05/23 04:21:32;;;;;;;1.63;0.80;;;9.30;99.90;;;;;;5023973;28;21274;-86
2021/05/23 04:23:58;;;;;;;1.53;0.97;;;9.30;99.90;;;;;;5031423;27;20692;-86
2021/05/23 04:26:25;;;;;;;1.40;0.73;;;9.40;99.90;;;;;;5026820;27;20663;-85
2021/05/23 04:28:51;;;;;;;1.20;0.70;;;9.30;99.90;;;;;;5047049;27;21274;-86
2021/05/23 04:31:18;;;;;;;1.23;0.73;;;9.30;99.90;;;;;;5030156;28;20652;-86
2021/05/23 04:33:44;;;;;;;3.27;1.20;;;9.30;99.90;;;;;;5035291;28;20991;-86
2021/05/23 04:36:11;;;;;;;1.27;1.00;;;9.30;99.90;;;;;;5019045;28;21197;-88
2021/05/23 04:38:37;;;;;;;2.20;0.90;;;9.30;99.90;;;;;;5030416;28;20657;-85
2021/05/23 04:41:04;;;;;;;0.90;0.90;;;9.30;99.90;;;;;;5034904;27;20666;-86
2021/05/23 04:43:30;;;;;;;1.03;0.93;;;9.30;99.90;;;;;;5029629;27;20630;-87
2021/05/23 04:45:56;;;;;;;2.10;0.80;;;9.30;99.90;;;;;;5036015;27;20655;-87
2021/05/23 04:48:22;;;;;;;2.20;0.77;;;9.40;99.90;;;;;;5025242;27;20686;-87
2021/05/23 04:50:49;;;;;;;0.80;0.77;;;9.50;99.90;;;;;;5043380;27;20658;-87
2021/05/23 04:53:18;;;;;;;1.20;0.80;;;9.60;99.90;;;;;;5025311;27;20642;-87
2021/05/23 04:55:44;;;;;;;1.60;1.00;;;9.60;99.90;;;;;;5017688;28;20639;-87
2021/05/23 04:58:11;;;;;;;3.03;0.90;;;9.60;99.90;;;;;;5032124;27;20675;-86
2021/05/23 05:00:37;;;;;;;1.80;0.50;;;9.70;99.90;;;;;;5030608;27;20670;-87
2021/05/23 05:03:04;;;;;;;1.50;0.73;;;9.70;99.90;;;;;;5029948;27;20633;-87
2021/05/23 05:05:31;;;;;;;0.70;0.60;;;9.70;99.90;;;;;;5040116;27;20646;-87
2021/05/23 05:07:57;;;;;;;2.23;1.03;;;9.70;99.90;;;;;;5038261;27;20630;-87
2021/05/23 05:10:25;;;;;;;1.73;0.70;;;9.80;99.90;;;;;;5030662;27;20665;-87
2021/05/23 05:12:52;;;;;;;0.83;0.60;;;9.90;99.90;;;;;;5031609;27;21306;-86
2021/05/23 05:15:18;;;;;;;1.10;0.80;;;9.90;99.90;;;;;;5029538;27;20629;-87
2021/05/23 05:17:44;;;;;;;1.37;0.60;;;9.90;99.90;;;;;;5041729;27;20641;-85
2021/05/23 05:20:12;;;;;;;1.27;0.80;;;9.90;99.90;;;;;;5035311;27;20654;-85
2021/05/23 05:22:39;;;;;;;2.40;0.70;;;10.00;99.90;;;;;;5025510;27;20627;-86
2021/05/23 05:25:07;;;;;;;1.53;1.20;;;10.00;99.90;;;;;;5041571;27;20632;-86
2021/05/23 05:27:34;;;;;;;0.73;0.57;;;10.10;99.90;;;;;;5021352;27;20716;-85
2021/05/23 05:30:01;;;;;;;0.70;0.70;;;10.10;99.90;;;;;;5026354;27;20630;-85
2021/05/23 05:32:28;;;;;;;1.80;0.77;;;10.20;99.90;;;;;;5037806;27;20639;-86
2021/05/23 05:34:54;;;;;;;0.60;0.50;;;10.30;99.90;;;;;;5035481;27;20657;-86
2021/05/23 05:37:20;;;;;;;1.50;0.90;;;10.30;99.90;;;;;;5025993;27;20625;-85
2021/05/23 05:39:46;;;;;;;1.33;0.57;;;10.40;99.90;;;;;;5039964;27;21154;-85
2021/05/23 05:42:13;;;;;;;0.90;0.50;;;10.50;99.90;;;;;;5031419;27;20651;-86
2021/05/23 05:44:40;;;;;;;1.30;0.90;;;10.50;99.90;;;;;;5026607;27;20630;-87
2021/05/23 05:47:07;;;;;;;0.93;0.93;;;10.60;99.90;;;;;;5034691;27;21002;-87
2021/05/23 05:49:36;;;;;;;1.13;0.50;;;10.60;99.90;;;;;;5022891;27;21525;-87
2021/05/23 05:52:04;;;;;;;0.90;0.60;;;10.70;99.90;;;;;;5024136;27;20637;-86
2021/05/23 05:54:31;;;;;;;0.60;0.50;;;10.70;99.90;;;;;;5032309;27;20634;-87
2021/05/23 05:56:58;;;;;;;0.77;0.60;;;10.80;99.90;;;;;;5033910;27;20660;-86
2021/05/23 05:59:25;;;;;;;1.07;0.70;;;10.90;99.90;;;;;;5020451;27;21109;-86
2021/05/23 06:01:53;;;;;;;0.60;0.57;;;11.00;99.90;;;;;;5035837;27;20663;-87
2021/05/23 06:04:20;;;;;;;0.50;0.50;;;11.20;99.90;;;;;;5030199;27;20645;-87
2021/05/23 06:06:46;;;;;;;1.67;0.70;;;11.20;99.90;;;;;;5033825;27;20587;-86
2021/05/23 06:09:12;;;;;;;0.90;0.60;;;11.30;99.90;;;;;;5020489;27;21169;-86
2021/05/23 06:11:39;;;;;;;0.83;0.70;;;11.40;99.90;;;;;;5032331;27;20650;-86
2021/05/23 06:14:05;;;;;;;1.90;0.50;;;11.40;99.90;;;;;;5023707;27;20737;-87
2021/05/23 06:16:32;;;;;;;1.07;0.50;;;11.40;99.90;;;;;;5022353;27;20651;-86
2021/05/23 06:18:59;;;;;;;1.43;0.57;;;11.30;99.90;;;;;;5027195;27;20667;-86
2021/05/23 06:21:25;;;;;;;1.17;0.60;;;11.30;99.90;;;;;;5032744;27;21122;-86
2021/05/23 06:23:53;;;;;;;1.30;0.70;;;11.30;99.90;;;;;;5039586;27;20641;-86
2021/05/23 06:26:23;;;;;;;1.13;0.47;;;11.40;99.90;;;;;;5023041;27;20625;-87
2021/05/23 06:28:52;;;;;;;0.50;0.33;;;11.40;99.90;;;;;;5036839;27;20635;-86
2021/05/23 06:31:19;;;;;;;0.60;0.50;;;11.50;99.90;;;;;;5026456;27;20674;-86
2021/05/23 06:33:45;;;;;;;1.90;0.70;;;11.60;99.90;;;;;;5034853;27;20627;-87
2021/05/23 06:36:13;;;;;;;1.30;0.63;;;11.70;99.90;;;;;;5034179;27;20750;-86
2021/05/23 06:38:39;;;;;;;1.00;0.80;;;11.80;99.90;;;;;;5024723;27;20664;-88
2021/05/23 06:41:05;;;;;;;1.43;0.60;;;12.00;99.90;;;;;;5040076;27;20675;-89
2021/05/23 06:43:32;;;;;;;2.10;0.60;;;12.00;99.90;;;;;;5032675;27;22247;-86
2021/05/23 06:45:59;;;;;;;0.70;0.40;;;11.80;99.90;;;;;;5031721;27;20625;-89
2021/05/23 06:48:27;;;;;;;1.37;0.83;;;11.80;99.90;;;;;;5048067;27;20634;-87
2021/05/23 06:50:55;;;;;;;1.23;0.50;;;12.00;99.90;;;;;;5030641;28;20645;-90
2021/05/23 06:53:22;;;;;;;1.30;0.80;;;12.00;99.90;;;;;;5038086;28;20698;-89
2021/05/23 06:55:51;;;;;;;0.70;0.60;;;11.90;99.90;;;;;;5082337;27;20702;-89
2021/05/23 06:58:22;;;;;;;0.93;0.70;;;11.90;99.90;;;;;;5064313;27;20679;-87
2021/05/23 07:00:48;;;;;;;0.83;0.53;;;11.80;99.90;;;;;;5039555;27;20647;-89
2021/05/23 07:03:15;;;;;;;2.50;0.50;;;11.80;99.90;;;;;;5028107;27;20743;-89
2021/05/23 07:05:41;;;;;;;1.93;0.70;;;11.80;99.90;;;;;;5029730;27;20674;-90
2021/05/23 07:08:08;;;;;;;1.27;0.60;;;11.80;99.90;;;;;;5023616;27;20619;-88
2021/05/23 07:10:35;;;;;;;0.87;0.60;;;11.80;99.90;;;;;;5021360;27;20690;-89
2021/05/23 07:13:03;;;;;;;1.70;0.60;;;12.00;99.90;;;;;;5037138;27;21119;-90
2021/05/23 07:15:29;;;;;;;1.97;0.60;;;12.00;99.90;;;;;;5037261;27;20597;-89
2021/05/23 07:17:58;;;;;;;0.97;0.60;;;12.00;99.90;;;;;;5042271;27;20638;-88
2021/05/23 07:20:27;;;;;;;2.00;0.70;;;12.10;99.90;;;;;;5026179;27;21183;-89
2021/05/23 07:22:54;;;;;;;1.03;0.50;;;12.30;99.90;;;;;;5040342;27;20634;-88
2021/05/23 07:25:20;;;;;;;0.40;0.40;;;12.40;99.90;;;;;;5032988;27;20639;-88
2021/05/23 07:27:48;;;;;;;1.63;0.60;;;12.50;99.90;;;;;;5033596;27;20640;-89
2021/05/23 07:30:15;;;;;;;0.90;0.60;;;12.60;99.90;;;;;;5027852;27;21039;-89
2021/05/23 07:32:42;;;;;;;1.73;0.70;;;12.80;99.90;;;;;;5047246;27;20630;-88
2021/05/23 07:35:10;;;;;;;2.50;0.73;;;13.40;99.90;;;;;;5018128;28;20643;-90
2021/05/23 07:37:37;;;;;;;2.13;0.70;;;13.40;99.90;;;;;;5037442;27;20631;-90
2021/05/23 07:40:04;;;;;;;1.40;0.80;;;13.40;99.90;;;;;;5034706;27;20658;-89
2021/05/23 07:42:31;;;;;;;3.90;0.90;;;13.20;99.90;;;;;;5031926;27;20615;-89
2021/05/23 07:45:01;;;;;;;1.23;0.50;;;13.20;99.90;;;;;;5025112;27;20670;-90
2021/05/23 07:47:27;;;;;;;2.10;0.60;;;13.40;99.90;;;;;;5037551;27;20647;-88
2021/05/23 07:49:55;;;;;;;2.17;0.70;;;13.70;99.90;;;;;;5020104;27;20606;-88
2021/05/23 07:52:24;;;;;;;2.40;0.73;;;13.80;99.90;;;;;;5032274;27;20627;-88
2021/05/23 07:54:52;;;;;;;1.77;0.53;;;13.60;99.90;;;;;;5033084;27;20778;-89
2021/05/23 07:57:18;;;;;;;6.10;1.00;;;13.30;99.90;;;;;;5027720;28;20678;-90
2021/05/23 07:59:47;;;;;;;1.30;0.60;;;12.50;99.90;;;;;;5028461;28;21057;-89
2021/05/23 08:02:14;;;;;;;1.60;0.73;;;11.30;99.90;;;;;;5030897;27;21070;-90
2021/05/23 08:04:40;;;;;;;0.97;0.40;;;10.30;99.90;;;;;;5031110;27;20653;-90
2021/05/23 08:07:07;;;;;;;1.10;0.60;;;9.50;99.90;;;;;;5019337;27;20716;-90
2021/05/23 08:09:34;;;;;;;1.70;0.50;;;9.20;99.90;;;;;;5027765;27;20644;-87
2021/05/23 08:12:01;;;;;;;1.53;0.60;;;8.90;99.90;;;;;;5040316;27;21058;-88
2021/05/23 08:14:27;;;;;;;0.70;0.50;;;9.00;99.90;;;;;;5023760;27;20631;-89
2021/05/23 08:17:00;;;;;;;1.90;0.60;;;9.10;99.90;;;;;;5024676;27;20650;-88
2021/05/23 08:19:27;;;;;;;2.20;0.63;;;9.20;99.90;;;;;;5025350;27;20666;-89
2021/05/23 08:21:54;;;;;;;1.80;0.70;;;9.20;99.90;;;;;;5026077;27;21000;-88
2021/05/23 08:24:20;;;;;;;2.83;0.70;;;9.30;99.90;;;;;;5020655;28;20667;-89
2021/05/23 08:26:47;;;;;;;1.20;0.63;;;9.30;99.90;;;;;;5016877;28;21275;-88
2021/05/23 08:29:14;;;;;;;2.00;1.40;;;9.30;99.90;;;;;;5020324;28;20615;-89
2021/05/23 08:31:40;;;;;;;10.23;8.23;;;9.60;99.90;;;;;;5024938;28;21271;-87
2021/05/23 08:34:06;;;;;;;2.70;2.50;;;10.10;99.90;;;;;;5020144;27;20658;-87
2021/05/23 08:36:35;;;;;;;1.23;0.70;;;10.60;99.90;;;;;;5025299;28;20674;-88
2021/05/23 08:39:03;;;;;;;2.87;0.70;;;11.00;99.90;;;;;;5051664;27;20673;-87
2021/05/23 08:41:29;;;;;;;1.00;0.90;;;11.20;99.90;;;;;;5021591;28;20649;-88
2021/05/23 08:43:56;;;;;;;0.90;0.70;;;11.30;99.90;;;;;;5022804;27;20661;-87
2021/05/23 08:46:28;;;;;;;2.73;0.60;;;11.80;99.90;;;;;;5017683;28;20664;-89
2021/05/23 08:48:56;;;;;;;0.73;0.50;;;11.80;99.90;;;;;;5010970;28;20639;-88
2021/05/23 08:51:23;;;;;;;1.13;0.60;;;12.00;99.90;;;;;;5022134;27;20630;-88
2021/05/23 08:53:51;;;;;;;1.40;0.57;;;12.20;99.90;;;;;;5033660;28;20645;-88
2021/05/23 08:56:17;;;;;;;1.70;0.80;;;12.30;99.90;;;;;;5016275;28;20643;-88
2021/05/23 08:58:44;;;;;;;4.23;1.20;;;12.20;99.90;;;;;;5019300;28;20663;-88
2021/05/23 09:01:24;;;;;;;1.57;1.00;;;12.00;99.90;;;;;;5017203;27;20700;-87
2021/05/23 09:03:56;;;;;;;2.00;0.90;;;12.00;99.90;;;;;;5020467;28;20643;-88
2021/05/23 09:06:27;;;;;;;1.30;0.80;;;12.40;99.90;;;;;;5019941;28;20689;-88
2021/05/23 09:09:00;;;;;;;1.13;0.80;;;13.00;99.90;;;;;;5022272;27;20634;-88
2021/05/23 09:11:27;;;;;;;4.60;0.60;;;13.30;99.90;;;;;;5020028;28;20634;-88
2021/05/23 09:13:55;;;;;;;1.73;0.63;;;13.70;99.90;;;;;;5023196;28;21151;-88
2021/05/23 09:16:22;;;;;;;1.53;0.70;;;13.80;99.90;;;;;;5024837;28;20654;-89
2021/05/23 09:18:51;;;;;;;5.90;1.00;;;14.30;99.90;;;;;;5020877;27;20728;-88
2021/05/23 09:21:20;;;;;;;3.33;0.97;;;14.50;99.90;;;;;;5025249;28;20633;-88
2021/05/23 09:23:49;;;;;;;1.23;0.70;;;14.50;99.90;;;;;;5025686;27;20638;-87
2021/05/23 09:26:21;;;;;;;2.50;0.53;;;14.70;99.90;;;;;;5022116;27;21189;-88
2021/05/23 09:28:50;;;;;;;2.43;0.80;;;14.80;99.90;;;;;;5022407;27;20623;-88
2021/05/23 09:31:18;;;;;;;0.90;0.50;;;14.70;99.90;;;;;;5020538;27;20682;-87
2021/05/23 09:33:46;;;;;;;1.23;0.73;;;14.40;99.90;;;;;;5018875;27;21324;-87
2021/05/23 09:36:14;;;;;;;0.90;0.60;;;14.30;99.90;;;;;;5025639;27;20686;-87
2021/05/23 09:38:50;;;;;;;2.50;0.83;;;14.10;99.90;;;;;;5019710;27;21326;-87
2021/05/23 09:41:26;;;;;;;3.73;0.80;;;14.00;99.90;;;;;;5023105;27;20673;-86
2021/05/23 09:44:12;;;;;;;2.10;0.80;;;14.20;99.90;;;;;;5017702;27;21180;-88
2021/05/23 09:46:52;;;;;;;1.83;0.90;;;14.20;99.90;;;;;;5031121;27;20998;-88
2021/05/23 09:49:20;;;;;;;1.23;1.00;;;14.10;99.90;;;;;;5020517;27;20630;-89
2021/05/23 09:51:51;;;;;;;1.53;0.80;;;14.10;99.90;;;;;;5028242;27;20670;-86
2021/05/23 09:54:18;;;;;;;4.93;0.80;;;13.90;99.90;;;;;;5024362;27;20635;-87
2021/05/23 09:56:46;;;;;;;1.80;0.87;;;13.70;99.90;;;;;;5019775;28;20647;-88
2021/05/23 09:59:22;;;;;;;2.17;0.80;;;13.70;99.90;;;;;;5024308;27;20658;-87
2021/05/23 10:01:52;;;;;;;0.83;0.70;;;13.30;99.90;;;;;;5018293;27;20630;-87
2021/05/23 10:04:21;;;;;;;1.53;0.90;;;12.90;99.90;;;;;;5028652;27;20669;-86
2021/05/23 10:07:03;;;;;;;1.30;0.70;;;12.50;99.90;;;;;;5032099;27;20642;-86
2021/05/23 10:09:32;;;;;;;1.07;0.50;;;12.40;99.90;;;;;;5018480;27;20641;-88
2021/05/23 10:12:01;;;;;;;1.87;0.67;;;12.30;99.90;;;;;;5020845;27;20629;-88
2021/05/23 10:14:29;;;;;;;1.67;0.60;;;12.40;99.90;;;;;;5026984;27;20651;-90
2021/05/23 10:16:56;;;;;;;3.03;1.13;;;12.60;99.90;;;;;;5045521;27;20636;-87
2021/05/23 10:19:25;;;;;;;3.90;0.80;;;13.00;99.90;;;;;;5040261;27;20664;-88
2021/05/23 10:21:55;;;;;;;1.53;0.57;;;13.70;99.90;;;;;;5042786;27;20730;-88
2021/05/23 10:24:28;;;;;;;2.70;0.70;;;14.20;99.90;;;;;;5033229;27;20629;-88
2021/05/23 10:26:58;;;;;;;2.27;0.80;;;14.60;99.90;;;;;;5035928;27;20620;-88
2021/05/23 10:29:30;;;;;;;0.87;0.50;;;14.80;99.90;;;;;;5033903;28;20615;-88
2021/05/23 10:32:07;;;;;;;2.83;1.17;;;14.90;99.90;;;;;;5031880;27;20691;-88
2021/05/23 10:34:39;;;;;;;1.63;0.73;;;15.40;99.90;;;;;;5021216;27;20678;-88
2021/05/23 10:37:06;;;;;;;1.40;0.70;;;15.50;99.90;;;;;;5022182;27;20646;-88
2021/05/23 10:39:37;;;;;;;1.20;0.80;;;15.20;99.60;;;;;;5019630;27;20673;-88
2021/05/23 10:42:05;;;;;;;0.70;0.50;;;15.30;98.80;;;;;;5035389;27;21156;-88
2021/05/23 10:44:42;;;;;;;2.13;0.90;;;15.40;99.30;;;;;;5016776;27;20669;-90
2021/05/23 10:47:13;;;;;;;4.40;0.70;;;16.00;98.20;;;;;;5029328;27;20647;-90
2021/05/23 10:49:54;;;;;;;1.23;0.53;;;16.50;98.10;;;;;;5045052;27;20670;-91
2021/05/23 10:52:23;;;;;;;2.30;0.70;;;17.00;95.20;;;;;;5026454;27;20650;-90
2021/05/23 10:55:01;;;;;;;1.07;0.80;;;16.40;97.00;;;;;;5010655;27;21144;-88
2021/05/23 10:57:27;;;;;;;0.77;0.77;;;16.80;96.40;;;;;;5018585;27;20657;-87
2021/05/23 10:59:59;;;;;;;3.63;0.70;;;17.10;93.80;;;;;;5025685;27;20667;-87
2021/05/23 11:02:38;;;;;;;2.50;0.70;;;16.90;95.00;;;;;;5017599;27;20631;-86
2021/05/23 11:05:14;;;;;;;1.17;0.50;;;16.60;93.60;;;;;;5020730;27;20806;-87
2021/05/23 11:07:40;;;;;;;4.97;0.70;;;16.50;94.60;;;;;;5013653;27;20722;-86
2021/05/23 11:10:19;;;;;;;1.17;0.50;;;16.40;96.10;;;;;;5021856;27;20619;-86
2021/05/23 11:12:50;;;;;;;1.83;0.90;;;16.40;95.50;;;;;;5021800;27;20622;-84
2021/05/23 11:15:17;;;;;;;2.27;0.50;;;16.00;96.00;;;;;;5017240;27;20693;-86
2021/05/23 11:17:47;;;;;;;1.37;0.40;;;15.50;97.60;;;;;;5022272;27;20687;-83
2021/05/23 11:20:18;;;;;;;0.87;0.50;;;15.50;98.30;;;;;;5006942;28;20766;-84
2021/05/23 11:22:46;;;;;;;1.00;0.50;;;15.10;98.00;;;;;;5024016;27;22670;-84
2021/05/23 11:25:15;;;;;;;3.70;0.60;;;15.00;98.90;;;;;;5018065;27;20656;-85
2021/05/23 11:27:41;;;;;;;3.93;0.80;;;14.80;99.90;;;;;;5019200;27;20700;-85
2021/05/23 11:30:13;;;;;;;1.33;0.70;;;14.60;99.90;;;;;;5015273;27;21402;-85
2021/05/23 11:32:41;;;;;;;1.20;0.70;;;14.60;99.90;;;;;;5013192;27;20644;-85
2021/05/23 11:35:10;;;;;;;1.40;0.77;;;14.70;99.90;;;;;;5022319;27;20634;-84
2021/05/23 11:37:39;;;;;;;0.97;0.90;;;14.80;99.90;;;;;;5016344;28;20642;-84
2021/05/23 11:40:08;;;;;;;1.00;0.60;;;15.10;99.80;;;;;;5022513;27;20685;-84
2021/05/23 11:42:40;;;;;;;4.73;0.67;;;15.20;98.00;;;;;;5025398;27;20631;-84
2021/05/23 11:45:19;;;;;;;0.80;0.67;;;15.60;98.10;;;;;;5024748;27;21055;-85
2021/05/23 11:47:50;;;;;;;0.60;0.43;;;16.50;97.50;;;;;;5011493;28;20626;-85
2021/05/23 11:50:28;;;;;;;1.70;0.53;;;16.60;95.90;;;;;;5017056;27;20634;-86
2021/05/23 11:52:57;;;;;;;1.00;0.50;;;16.50;95.50;;;;;;5020122;27;21086;-86
2021/05/23 11:55:25;;;;;;;0.67;0.47;;;17.40;95.30;;;;;;5017447;28;20667;-87
2021/05/23 11:58:06;;;;;;;0.70;0.40;;;18.30;92.40;;;;;;5019225;28;20692;-87
2021/05/23 12:00:32;;;;;;;0.83;0.70;;;18.40;90.50;;;;;;5019608;27;20612;-86
2021/05/23 12:03:03;;;;;;;1.60;0.60;;;18.30;89.00;;;;;;5026340;27;20631;-87
2021/05/23 12:05:42;;;;;;;0.90;0.60;;;18.50;90.10;;;;;;5017990;28;21201;-87
2021/05/23 12:08:20;;;;;;;0.50;0.43;;;19.00;88.50;;;;;;5020508;27;21261;-86
2021/05/23 12:10:59;;;;;;;0.83;0.70;;;19.10;84.10;;;;;;5027593;28;20678;-87
2021/05/23 12:13:40;;;;;;;1.43;0.63;;;19.10;82.90;;;;;;5031864;27;20638;-87
2021/05/23 12:16:08;;;;;;;0.50;0.50;;;19.80;80.80;;;;;;5059234;27;20674;-86
2021/05/23 12:18:41;;;;;;;1.80;0.50;;;19.90;77.80;;;;;;5030507;27;20998;-85
2021/05/23 12:21:11;;;;;;;2.07;0.60;;;20.00;78.70;;;;;;5034572;28;20811;-87
2021/05/23 12:23:38;;;;;;;0.90;0.50;;;19.90;79.60;;;;;;5031594;28;20640;-87
2021/05/23 12:26:09;;;;;;;1.10;0.50;;;19.90;81.90;;;;;;5037321;28;20657;-87
2021/05/23 12:28:37;;;;;;;0.60;0.60;;;19.70;80.30;;;;;;5031834;28;20643;-86
2021/05/23 12:31:11;;;;;;;0.70;0.70;;;20.40;78.70;;;;;;5044747;28;20665;-86
2021/05/23 12:33:49;;;;;;;1.17;0.60;;;20.00;79.70;;;;;;5035649;28;21647;-86
2021/05/23 12:36:17;;;;;;;0.93;0.50;;;20.50;78.20;;;;;;5050112;28;20721;-87
2021/05/23 12:38:54;;;;;;;0.93;0.53;;;21.30;76.70;;;;;;5033492;28;20668;-87
2021/05/23 12:41:21;;;;;;;0.80;0.50;;;21.90;72.70;;;;;;5028076;28;21011;-87
2021/05/23 12:43:49;;;;;;;0.50;0.50;;;22.30;72.30;;;;;;5039539;28;20634;-87
2021/05/23 12:46:15;;;;;;;1.40;0.53;;;22.20;68.50;;;;;;5038067;28;20689;-86
2021/05/23 12:48:45;;;;;;;1.30;0.60;;;22.00;68.50;;;;;;5039867;28;20623;-85
2021/05/23 12:51:13;;;;;;;0.70;0.60;;;21.40;68.70;;;;;;5044453;28;20654;-86
2021/05/23 12:53:47;;;;;;;1.90;0.77;;;20.60;71.30;;;;;;5062879;28;20634;-86
2021/05/23 12:56:16;;;;;;;1.23;0.70;;;19.60;73.00;;;;;;5042818;28;20652;-87